KSDF/SDF METAR and TAF weather

Enter ICAO airport designator
Station Type Date Time Source
KSDF METAR 2019/12/14 18:56 UTC NOAA

KSDF 141856Z 27010KT 10SM SCT016 BKN030 BKN100 08/03 A2973 RMK AO2 SLP068 T00780028


Station Type Date Time Source
KSDF Decoded METAR 2019/12/14 18:56 UTC NOAA

STANDIFORD FIELD, KY, United States (KSDF) 38-11N 085-44W 146M
Dec 14, 2019 - 01:56 PM EST / 2019.12.14 1856 UTC
Wind: from the W (270 degrees) at 12 MPH (10 KT):0
Visibility: 10 mile(s):0
Sky conditions: mostly cloudy
Temperature: 46.0 F (7.8 C)
Dew Point: 37.0 F (2.8 C)
Relative Humidity: 70%
Pressure (altimeter): 29.73 in. Hg (1006 hPa)
ob: KSDF 141856Z 27010KT 10SM SCT016 BKN030 BKN100 08/03 A2973 RMK AO2 SLP068 T00780028
cycle: 19

Station Type Date Time Source
KSDF TAF 2019/12/14 18:30 UTC NOAA

TAF KSDF 141729Z 1418/1524 27010KT P6SM BKN018 OVC035
FM142100 27009KT P6SM SCT030 OVC050
FM150100 28009KT P6SM OVC025
FM150300 28009KT P6SM OVC016
FM151000 30006KT P6SM OVC022
FM151400 VRB04KT P6SM SCT030 BKN050

Example: see airport list